倫敦, 英國

2014年9月30日 10時46分 (GMT +0100)
Heathrow | Change Station
CLOSE
Current Station
機場
Location: London,
海拔: 79 ft
附近的氣象站

海拔 79 ft 51.48 °N, 0.46 °W | Updated 26 minutes ago

Scattered Clouds
多雲時晴
63 °F
感覺像 63 °F
7
風 變化 風 來自 西南偏南

今日
高 -- | 低 -- °F
--% 降水機率
昨天
高 -- | 低 -- °F
Precip. -- 英寸
7:00 AM 6:42 PM
眉月, 35% visible
氣壓 30.24 英寸
能見度 6.2 英里
多雲 多雲時晴 3700 ft
多雲時晴 4100 ft
露點 57 °F
濕度 82%
降雨量 0.00 英寸
積雪深度 不適用。
紫外線 2 / 12
花粉 不適用。
空氣質素 不適用。
Flu Activity 不適用。
METAR EGLL 300920Z 21006KT 170V260 9999 SCT037 SCT041 17/14 Q1024 NOSIG

More Conditions Fewer Conditions

氣壓 30.24 英寸
能見度 6.2 英里
多雲 多雲時晴 3700 ft
多雲時晴 4100 ft
露點 57 °F
濕度 82%
降雨量 0.00 英寸
積雪深度 不適用。
紫外線 2 / 12
花粉 不適用。
空氣質素 不適用。
Flu Activity 不適用。
METAR EGLL 300920Z 21006KT 170V260 9999 SCT037 SCT041 17/14 Q1024 NOSIG

More Conditions Fewer Conditions

10-Day Weather Forecast

Almanac

天文

Sep. 30, 2014 昇起 降落
實際時間 07:00 BST 18:42 BST
民用曙暮光 06:27 BST 19:15 BST
航海曙暮光 05:48 BST 19:54 BST
天文學微明 05:08 BST 20:33 BST
月亮 13:26 BST 22:26 BST
可見光的長度 12h 48m
白晝時間
11h 41m
Tomorrow will be 3m 54s shorter.
眉月, 35% of the Moon is Illuminated
今日
眉月
10月 1
第一季
10月 8
滿月
10月 15
第四季
10月 23

昨天之最

國家高溫 國家低溫

Community

WunderPhotos

Upload Photos

1,757,606 照片已上傳!

Nearby

積雪量

Not available.

地震活動

城市 距離 時間和日期
附近沒有最近發生的地震活動。
顯示的最小幅度是2.5。

沿海水溫

地點 溫度
無任何天氣監測站報告

附近的氣象站